Time;durP1;ratioP1;P1;durP2;ratioP2;P2;SDS_P1;SDS_P2;PMS_P1;PMS_P2;Temp;Humidity;BMP_temperature;BMP_pressure;BME280_temperature;BME280_humidity;BME280_pressure;Samples;Min_cycle;Max_cycle;Signal;HPM_P1;HPM_P2
2023/01/31 00:01:13;;;;;;;8.00;6.17;;;5.20;99.90;;;;;;5021808;28;20403;-72
2023/01/31 00:03:39;;;;;;;8.10;6.33;;;5.20;99.90;;;;;;5013091;28;20454;-72
2023/01/31 00:06:19;;;;;;;9.30;5.93;;;5.20;99.90;;;;;;5013172;28;20399;-72
2023/01/31 00:08:46;;;;;;;8.93;5.43;;;5.20;99.90;;;;;;5012747;28;20419;-72
2023/01/31 00:11:13;;;;;;;6.83;5.40;;;5.30;99.90;;;;;;5013074;28;20771;-72
2023/01/31 00:13:38;;;;;;;7.93;5.77;;;5.20;99.90;;;;;;5013019;28;20422;-72
2023/01/31 00:16:05;;;;;;;9.37;5.90;;;5.10;99.90;;;;;;5013035;28;20406;-72
2023/01/31 00:18:31;;;;;;;7.83;6.00;;;5.00;99.90;;;;;;5013761;28;20481;-72
2023/01/31 00:20:56;;;;;;;5.97;5.07;;;4.90;99.90;;;;;;5016458;28;20929;-72
2023/01/31 00:23:22;;;;;;;10.23;6.67;;;5.00;99.90;;;;;;5016499;28;20206;-73
2023/01/31 00:25:48;;;;;;;9.90;5.73;;;5.00;99.90;;;;;;5016624;28;20171;-72
2023/01/31 00:28:13;;;;;;;10.40;6.10;;;5.00;99.90;;;;;;5020752;28;20246;-72
2023/01/31 00:30:39;;;;;;;10.80;5.17;;;4.90;99.90;;;;;;5036771;28;20534;-72
2023/01/31 00:33:04;;;;;;;10.63;5.90;;;4.80;99.90;;;;;;5036493;28;20579;-72
2023/01/31 00:35:30;;;;;;;8.27;5.20;;;4.70;99.90;;;;;;5036372;28;20180;-72
2023/01/31 00:37:55;;;;;;;6.33;5.00;;;4.60;99.90;;;;;;5036413;28;20271;-72
2023/01/31 00:40:21;;;;;;;7.43;5.10;;;4.60;99.90;;;;;;5035854;28;20550;-72
2023/01/31 00:42:46;;;;;;;8.20;5.37;;;4.60;99.90;;;;;;5032191;28;20230;-72
2023/01/31 00:45:12;;;;;;;9.40;6.33;;;4.60;99.90;;;;;;5016528;28;20172;-72
2023/01/31 00:47:38;;;;;;;10.27;5.80;;;4.60;99.90;;;;;;5016555;28;20251;-71
2023/01/31 00:50:04;;;;;;;9.00;5.17;;;4.50;99.90;;;;;;5016434;28;20168;-71
2023/01/31 00:52:30;;;;;;;10.03;5.87;;;4.50;99.90;;;;;;5016411;28;20168;-72
2023/01/31 00:54:56;;;;;;;10.90;5.10;;;4.60;99.90;;;;;;5031998;28;20952;-71
2023/01/31 00:57:21;;;;;;;7.83;6.00;;;4.60;99.90;;;;;;5036010;28;20202;-72
2023/01/31 00:59:47;;;;;;;11.83;6.20;;;4.50;99.90;;;;;;5036012;28;20178;-72
2023/01/31 01:02:12;;;;;;;11.17;5.70;;;4.40;99.90;;;;;;5035922;28;20227;-72
2023/01/31 01:04:38;;;;;;;9.03;5.70;;;4.40;99.90;;;;;;5036435;28;20163;-72
2023/01/31 01:07:03;;;;;;;5.87;5.23;;;4.50;99.90;;;;;;5036236;28;20272;-72
2023/01/31 01:09:29;;;;;;;9.40;5.87;;;4.60;99.90;;;;;;5035525;28;20163;-72
2023/01/31 01:11:54;;;;;;;7.50;5.30;;;4.40;99.90;;;;;;5035855;28;20520;-70
2023/01/31 01:14:20;;;;;;;11.80;5.60;;;4.40;99.90;;;;;;5035761;28;20173;-72
2023/01/31 01:16:46;;;;;;;7.47;5.00;;;4.30;99.90;;;;;;5035861;28;20206;-71
2023/01/31 01:19:15;;;;;;;11.07;4.57;;;4.40;99.90;;;;;;5035713;28;20181;-71
2023/01/31 01:21:43;;;;;;;7.57;4.60;;;4.30;99.90;;;;;;5035528;28;20191;-71
2023/01/31 01:24:16;;;;;;;10.63;6.57;;;4.40;99.90;;;;;;5035300;28;20406;-71
2023/01/31 01:26:42;;;;;;;11.47;5.27;;;4.40;99.90;;;;;;5035719;28;20752;-71
2023/01/31 01:29:08;;;;;;;7.70;5.30;;;4.30;99.90;;;;;;5035567;28;20409;-72
2023/01/31 01:31:33;;;;;;;8.43;4.50;;;4.30;99.90;;;;;;5035014;28;20271;-72
2023/01/31 01:34:03;;;;;;;8.13;5.03;;;4.30;99.90;;;;;;5035455;28;20489;-72
2023/01/31 01:36:32;;;;;;;8.10;5.17;;;4.40;99.90;;;;;;5035640;28;20530;-72
2023/01/31 01:38:58;;;;;;;9.40;5.83;;;4.40;99.90;;;;;;5035022;28;20782;-72
2023/01/31 01:41:24;;;;;;;10.90;4.73;;;4.50;99.90;;;;;;5033907;28;20410;-72
2023/01/31 01:43:56;;;;;;;9.10;5.50;;;4.50;99.90;;;;;;5035405;28;20166;-72
2023/01/31 01:46:39;;;;;;;12.60;6.77;;;4.50;99.90;;;;;;5035110;28;20402;-72
2023/01/31 01:49:15;;;;;;;11.77;6.30;;;4.60;99.90;;;;;;5035634;28;20387;-71
2023/01/31 01:51:43;;;;;;;16.00;5.60;;;4.50;99.90;;;;;;5035413;28;20414;-72
2023/01/31 01:54:13;;;;;;;9.80;5.40;;;4.40;99.90;;;;;;5033145;28;20429;-72
2023/01/31 01:56:44;;;;;;;7.87;4.53;;;4.50;99.90;;;;;;5034907;28;20387;-72
2023/01/31 01:59:26;;;;;;;9.27;5.43;;;4.50;99.90;;;;;;5034901;28;20389;-72
2023/01/31 02:01:55;;;;;;;9.10;5.47;;;4.50;99.90;;;;;;5035055;28;20789;-72
2023/01/31 02:04:26;;;;;;;8.77;5.43;;;4.40;99.90;;;;;;5033577;28;20425;-72
2023/01/31 02:06:52;;;;;;;9.43;6.07;;;4.50;99.90;;;;;;5034956;28;20394;-72
2023/01/31 02:09:45;;;;;;;17.43;6.87;;;4.50;99.90;;;;;;5023029;28;20427;-72
2023/01/31 02:12:11;;;;;;;11.23;6.13;;;4.50;99.90;;;;;;5008697;28;20517;-72
2023/01/31 02:14:37;;;;;;;30.20;10.90;;;4.50;99.90;;;;;;5023857;28;20437;-72
2023/01/31 02:17:03;;;;;;;8.90;5.80;;;4.50;99.90;;;;;;5034443;28;20793;-72
2023/01/31 02:19:39;;;;;;;12.30;6.13;;;4.40;99.90;;;;;;5034490;28;20167;-72
2023/01/31 02:22:25;;;;;;;12.30;5.60;;;4.30;99.90;;;;;;5033087;28;20195;-72
2023/01/31 02:25:24;;;;;;;11.10;5.03;;;4.40;99.90;;;;;;5034230;28;20781;-72
2023/01/31 02:28:34;;;;;;;9.87;5.57;;;4.40;99.90;;;;;;5034451;28;20414;-72
2023/01/31 02:31:09;;;;;;;16.97;6.40;;;4.40;99.90;;;;;;5025968;28;20422;-72
2023/01/31 02:33:57;;;;;;;10.00;5.03;;;4.50;99.90;;;;;;5034432;28;20452;-72
2023/01/31 02:36:31;;;;;;;9.07;5.07;;;4.50;99.90;;;;;;5018426;28;20768;-72
2023/01/31 02:39:02;;;;;;;9.93;5.57;;;4.60;99.90;;;;;;5014274;28;20419;-72
2023/01/31 02:42:04;;;;;;;28.90;13.70;;;4.50;99.90;;;;;;5014109;28;20988;-72
2023/01/31 02:44:59;;;;;;;14.67;7.90;;;4.60;99.90;;;;;;5019124;28;20480;-72
2023/01/31 02:47:52;;;;;;;8.77;5.60;;;4.50;99.90;;;;;;5006940;28;20446;-72
2023/01/31 02:50:25;;;;;;;8.73;6.07;;;4.50;99.90;;;;;;5032613;28;20481;-72
2023/01/31 02:52:58;;;;;;;7.33;5.30;;;4.50;99.90;;;;;;5033880;28;20425;-72
2023/01/31 02:58:13;;;;;;;9.73;4.90;;;4.70;99.90;;;;;;5033715;28;20931;-72
2023/01/31 03:00:43;;;;;;;9.40;4.80;;;4.70;99.90;;;;;;5033851;28;20479;-72
2023/01/31 03:03:21;;;;;;;9.40;5.60;;;4.80;99.90;;;;;;5033902;28;20473;-72
2023/01/31 03:06:08;;;;;;;10.87;4.80;;;4.60;99.90;;;;;;5033893;28;20473;-72
2023/01/31 03:09:20;;;;;;;8.33;4.87;;;4.60;99.90;;;;;;5033646;28;20429;-71
2023/01/31 03:12:05;;;;;;;14.13;6.30;;;4.60;99.90;;;;;;5033812;28;20465;-72
2023/01/31 03:14:49;;;;;;;11.40;5.27;;;4.70;99.90;;;;;;5033573;28;20383;-72
2023/01/31 03:17:48;;;;;;;8.40;5.00;;;4.80;99.90;;;;;;5033666;28;20456;-72
2023/01/31 03:20:23;;;;;;;6.93;5.40;;;4.80;99.90;;;;;;5010078;28;20779;-72
2023/01/31 03:22:55;;;;;;;10.83;5.10;;;4.70;99.90;;;;;;5033657;28;20445;-72
2023/01/31 03:25:24;;;;;;;10.03;4.00;;;4.90;99.90;;;;;;5032751;28;20792;-72
2023/01/31 03:27:59;;;;;;;8.50;5.50;;;5.00;99.90;;;;;;5033131;28;20457;-71
2023/01/31 03:30:31;;;;;;;7.60;4.87;;;4.90;99.90;;;;;;5033253;28;20406;-72
2023/01/31 03:33:03;;;;;;;6.17;4.40;;;5.00;99.90;;;;;;5033235;28;20474;-72
2023/01/31 03:35:33;;;;;;;12.17;5.13;;;5.20;99.90;;;;;;5033508;28;20426;-72
2023/01/31 03:38:07;;;;;;;9.17;5.17;;;5.20;99.90;;;;;;5033323;28;20505;-71
2023/01/31 03:41:06;;;;;;;7.63;5.63;;;5.30;99.90;;;;;;5032859;28;20441;-72
2023/01/31 03:43:43;;;;;;;4.77;4.10;;;5.30;99.90;;;;;;5033092;28;20454;-71
2023/01/31 03:46:16;;;;;;;11.20;5.47;;;5.30;99.90;;;;;;5033369;28;20378;-72
2023/01/31 03:48:45;;;;;;;7.83;5.00;;;5.40;99.90;;;;;;5032940;28;20470;-72
2023/01/31 03:51:18;;;;;;;10.00;6.60;;;5.40;99.90;;;;;;5033078;28;20406;-72
2023/01/31 03:53:52;;;;;;;7.07;4.60;;;5.20;99.90;;;;;;5032060;28;20889;-73
2023/01/31 03:56:27;;;;;;;13.67;5.80;;;5.20;99.90;;;;;;5033857;28;20386;-73
2023/01/31 03:58:59;;;;;;;9.70;5.60;;;5.20;99.90;;;;;;5032058;28;20481;-71
2023/01/31 04:01:28;;;;;;;11.83;5.70;;;5.00;99.90;;;;;;5033526;28;20766;-72
2023/01/31 04:04:00;;;;;;;9.03;5.07;;;4.90;99.90;;;;;;5031442;28;20983;-72
2023/01/31 04:06:26;;;;;;;9.30;5.23;;;4.80;99.90;;;;;;5027583;28;20383;-73
2023/01/31 04:08:52;;;;;;;10.33;6.40;;;4.80;99.90;;;;;;5012290;28;20423;-72
2023/01/31 04:11:20;;;;;;;10.03;5.90;;;4.70;99.90;;;;;;5013227;28;20391;-72
2023/01/31 04:13:46;;;;;;;11.60;5.30;;;4.60;99.90;;;;;;5014034;28;20210;-73
2023/01/31 04:16:13;;;;;;;7.40;5.40;;;4.60;99.90;;;;;;5020145;28;20449;-73
2023/01/31 04:18:38;;;;;;;10.37;5.57;;;4.40;99.90;;;;;;5032824;28;20184;-73
2023/01/31 04:21:04;;;;;;;12.03;5.90;;;4.40;99.90;;;;;;5033202;28;20909;-72
2023/01/31 04:23:29;;;;;;;11.00;6.60;;;4.50;99.90;;;;;;5033179;28;20190;-72
2023/01/31 04:25:55;;;;;;;7.40;5.17;;;4.30;99.90;;;;;;5032885;28;20168;-73
2023/01/31 04:28:21;;;;;;;11.97;6.57;;;4.40;99.90;;;;;;5032003;28;20714;-71
2023/01/31 04:30:55;;;;;;;7.13;5.47;;;4.40;99.90;;;;;;5033218;28;20515;-72
2023/01/31 04:33:21;;;;;;;16.40;8.23;;;4.40;99.90;;;;;;5033111;28;20757;-71
2023/01/31 04:35:46;;;;;;;10.60;6.50;;;4.20;99.90;;;;;;5030915;28;20483;-72
2023/01/31 04:38:12;;;;;;;9.90;6.87;;;4.20;99.90;;;;;;5032488;28;20988;-71
2023/01/31 04:40:38;;;;;;;9.23;5.83;;;4.20;99.90;;;;;;5032399;28;20638;-72
2023/01/31 04:43:03;;;;;;;12.47;6.50;;;4.30;99.90;;;;;;5025048;28;20188;-71
2023/01/31 04:45:29;;;;;;;9.73;5.80;;;4.20;99.90;;;;;;5012880;28;20169;-71
2023/01/31 04:47:54;;;;;;;10.50;5.67;;;4.20;99.90;;;;;;5012938;28;20212;-72
2023/01/31 04:50:20;;;;;;;13.40;6.20;;;4.20;99.90;;;;;;5012875;28;20171;-72
2023/01/31 04:52:49;;;;;;;11.97;8.70;;;4.20;99.90;;;;;;5012896;28;20211;-72
2023/01/31 04:55:15;;;;;;;11.20;6.30;;;4.10;99.90;;;;;;5026557;28;20225;-71
2023/01/31 04:57:40;;;;;;;9.57;7.13;;;4.30;99.90;;;;;;5032524;28;20425;-72
2023/01/31 05:00:07;;;;;;;9.57;5.73;;;4.30;99.90;;;;;;5030751;28;20187;-72
2023/01/31 05:02:32;;;;;;;14.43;6.40;;;4.30;99.90;;;;;;5032413;28;20217;-72
2023/01/31 05:04:58;;;;;;;11.00;5.70;;;4.30;99.90;;;;;;5032410;28;20403;-72
2023/01/31 05:07:24;;;;;;;11.97;5.60;;;4.40;99.90;;;;;;5035962;28;20183;-72
2023/01/31 05:09:50;;;;;;;10.10;6.63;;;4.50;99.90;;;;;;5034225;28;20509;-72
2023/01/31 05:12:15;;;;;;;11.50;6.20;;;4.20;99.90;;;;;;5036161;28;20175;-72
2023/01/31 05:14:41;;;;;;;7.70;5.23;;;4.40;99.90;;;;;;5036452;28;20314;-72
2023/01/31 05:17:06;;;;;;;7.97;4.70;;;4.60;99.90;;;;;;5035516;28;20191;-72
2023/01/31 05:19:32;;;;;;;9.63;5.70;;;4.60;99.90;;;;;;5033929;28;20175;-73
2023/01/31 05:21:57;;;;;;;12.27;5.80;;;4.80;99.90;;;;;;5030929;28;20195;-73
2023/01/31 05:24:27;;;;;;;8.87;5.50;;;4.90;99.90;;;;;;5016108;28;20172;-72
2023/01/31 05:26:57;;;;;;;8.83;5.70;;;4.80;99.90;;;;;;5015747;28;20312;-72
2023/01/31 05:29:24;;;;;;;10.90;5.20;;;4.70;99.90;;;;;;5015970;28;20399;-72
2023/01/31 05:31:54;;;;;;;7.33;5.10;;;4.60;99.90;;;;;;5015369;28;20403;-72
2023/01/31 05:34:21;;;;;;;10.67;5.63;;;4.70;99.90;;;;;;5015400;28;20470;-72
2023/01/31 05:36:46;;;;;;;8.27;5.90;;;4.80;99.90;;;;;;5015782;28;20407;-72
2023/01/31 05:39:12;;;;;;;8.90;5.40;;;4.90;99.90;;;;;;5016163;28;20827;-72
2023/01/31 05:41:38;;;;;;;8.43;5.47;;;4.70;99.90;;;;;;5015598;28;20183;-72
2023/01/31 05:44:04;;;;;;;9.77;6.23;;;4.70;99.90;;;;;;5015490;28;20168;-72
2023/01/31 05:46:29;;;;;;;10.80;5.20;;;4.80;99.90;;;;;;5015028;28;20179;-72
2023/01/31 05:48:55;;;;;;;11.30;6.27;;;4.70;99.90;;;;;;5020157;28;20211;-72
2023/01/31 05:51:20;;;;;;;12.90;6.53;;;4.60;99.90;;;;;;5035247;28;20176;-72
2023/01/31 05:53:47;;;;;;;6.93;5.93;;;4.50;99.90;;;;;;5033782;28;20179;-72
2023/01/31 05:56:13;;;;;;;17.90;11.80;;;4.50;99.90;;;;;;5034646;28;20168;-72
2023/01/31 05:58:39;;;;;;;12.67;7.00;;;4.40;99.90;;;;;;5034864;28;20441;-72
2023/01/31 06:01:04;;;;;;;13.07;5.80;;;4.40;99.90;;;;;;5033176;28;20183;-72
2023/01/31 06:03:30;;;;;;;8.00;6.60;;;4.30;99.90;;;;;;5034769;28;20550;-72
2023/01/31 06:05:55;;;;;;;7.03;4.90;;;4.00;99.90;;;;;;5029944;28;20176;-72
2023/01/31 06:08:21;;;;;;;14.40;7.00;;;3.80;99.90;;;;;;5014499;28;20681;-72
2023/01/31 06:10:46;;;;;;;9.70;6.73;;;3.60;99.90;;;;;;5028997;28;20168;-72
2023/01/31 06:13:12;;;;;;;9.27;6.30;;;3.60;99.90;;;;;;5034512;28;20171;-72
2023/01/31 06:15:53;;;;;;;8.80;6.43;;;3.60;99.90;;;;;;5034841;28;20518;-72
2023/01/31 06:18:18;;;;;;;11.50;6.93;;;3.50;99.90;;;;;;5019720;28;20202;-72
2023/01/31 06:20:44;;;;;;;7.87;7.07;;;3.50;99.90;;;;;;5014454;28;20411;-72
2023/01/31 06:23:10;;;;;;;8.83;6.43;;;3.40;99.90;;;;;;5014144;28;20207;-72
2023/01/31 06:25:35;;;;;;;14.83;7.07;;;3.30;99.90;;;;;;5014522;28;20251;-70
2023/01/31 06:28:01;;;;;;;12.70;6.87;;;3.30;99.90;;;;;;5015335;28;20510;-71
2023/01/31 06:30:26;;;;;;;12.67;6.13;;;3.30;99.90;;;;;;5014528;28;20606;-72
2023/01/31 06:32:52;;;;;;;10.90;6.80;;;3.30;99.90;;;;;;5014394;28;20584;-72
2023/01/31 06:35:18;;;;;;;9.93;6.50;;;3.30;99.90;;;;;;5014108;28;20722;-72
2023/01/31 06:37:43;;;;;;;9.13;7.20;;;3.20;99.90;;;;;;5014424;28;20220;-72
2023/01/31 06:40:09;;;;;;;15.50;7.47;;;3.10;99.90;;;;;;5023402;28;20183;-72
2023/01/31 06:42:35;;;;;;;10.40;7.30;;;3.10;99.90;;;;;;5034080;28;20187;-72
2023/01/31 06:45:00;;;;;;;9.87;7.10;;;3.00;99.90;;;;;;5033969;28;20421;-72
2023/01/31 06:47:26;;;;;;;9.07;6.47;;;3.00;99.90;;;;;;5033750;28;20222;-72
2023/01/31 06:49:51;;;;;;;11.57;7.00;;;3.00;99.90;;;;;;5033799;28;20156;-72
2023/01/31 06:52:17;;;;;;;9.17;6.30;;;3.00;99.90;;;;;;5033825;28;20318;-72
2023/01/31 06:54:43;;;;;;;12.73;7.40;;;3.10;99.90;;;;;;5031148;28;20168;-73
2023/01/31 06:57:08;;;;;;;18.87;8.77;;;3.20;99.90;;;;;;5013880;28;20227;-72
2023/01/31 06:59:34;;;;;;;10.57;7.13;;;3.20;99.90;;;;;;5014008;28;20259;-72
2023/01/31 07:01:59;;;;;;;13.10;7.13;;;3.30;99.90;;;;;;5013439;28;20552;-72
2023/01/31 07:04:25;;;;;;;10.53;7.60;;;3.30;99.90;;;;;;5014271;28;20599;-72
2023/01/31 07:06:50;;;;;;;11.73;7.17;;;3.40;99.90;;;;;;5014157;28;20184;-72
2023/01/31 07:09:16;;;;;;;16.33;8.87;;;3.20;99.90;;;;;;5013771;28;20157;-71
2023/01/31 07:11:42;;;;;;;9.67;7.60;;;3.30;99.90;;;;;;5032018;28;20645;-72
2023/01/31 07:14:07;;;;;;;10.30;7.90;;;3.30;99.90;;;;;;5031280;28;20671;-73
2023/01/31 07:16:36;;;;;;;13.87;7.90;;;3.30;99.90;;;;;;5014206;28;20619;-72
2023/01/31 07:19:02;;;;;;;9.80;7.20;;;3.30;99.90;;;;;;5013914;28;20662;-72
2023/01/31 07:21:28;;;;;;;12.20;7.03;;;3.40;99.90;;;;;;5013807;28;20407;-72
2023/01/31 07:23:54;;;;;;;8.50;5.43;;;3.40;99.90;;;;;;5012921;28;20662;-72
2023/01/31 07:26:19;;;;;;;14.40;7.07;;;3.40;99.90;;;;;;5013525;28;20544;-72
2023/01/31 07:28:45;;;;;;;14.03;6.87;;;3.50;99.90;;;;;;5011820;28;20184;-71
2023/01/31 07:31:12;;;;;;;10.00;5.67;;;3.50;99.90;;;;;;5013535;28;20666;-72
2023/01/31 07:33:39;;;;;;;8.50;5.53;;;3.50;99.90;;;;;;5013731;28;20218;-70
2023/01/31 07:36:06;;;;;;;11.23;6.50;;;3.50;99.90;;;;;;5013258;28;20403;-71
2023/01/31 07:38:33;;;;;;;9.90;6.20;;;3.60;99.90;;;;;;5013091;28;20431;-71
2023/01/31 07:41:00;;;;;;;12.40;7.93;;;3.50;99.90;;;;;;5014092;28;20406;-72
2023/01/31 07:43:26;;;;;;;14.30;6.60;;;3.70;99.90;;;;;;5013446;28;20474;-71
2023/01/31 07:45:52;;;;;;;9.90;5.70;;;3.70;99.90;;;;;;5014396;28;20534;-73
2023/01/31 07:48:22;;;;;;;6.07;4.80;;;3.80;99.90;;;;;;5013840;28;20875;-72
2023/01/31 07:50:58;;;;;;;10.10;5.90;;;3.80;99.90;;;;;;5013882;28;20482;-73
2023/01/31 07:53:23;;;;;;;8.87;5.53;;;3.80;99.90;;;;;;5025777;28;20424;-72
2023/01/31 07:55:49;;;;;;;9.07;5.97;;;3.90;99.90;;;;;;5032392;28;20430;-72
2023/01/31 07:58:15;;;;;;;9.00;6.10;;;3.90;99.90;;;;;;5033163;28;20183;-72
2023/01/31 08:03:31;;;;;;;12.10;5.60;;;4.00;99.90;;;;;;5032792;28;20433;-71
2023/01/31 08:05:57;;;;;;;15.20;9.27;;;4.00;99.90;;;;;;5032845;28;20462;-71
2023/01/31 08:08:22;;;;;;;11.00;6.20;;;4.00;99.90;;;;;;5032624;28;20468;-71
2023/01/31 08:10:48;;;;;;;14.93;5.60;;;4.20;99.90;;;;;;5032840;28;20402;-71
2023/01/31 08:13:13;;;;;;;9.57;4.70;;;4.30;99.90;;;;;;5031463;28;20171;-71
2023/01/31 08:15:39;;;;;;;10.93;5.87;;;4.30;99.90;;;;;;5029785;28;20177;-71
2023/01/31 08:18:05;;;;;;;12.37;6.43;;;4.20;99.90;;;;;;5032861;28;20198;-71
2023/01/31 08:20:30;;;;;;;13.30;6.43;;;4.10;99.90;;;;;;5032387;28;20636;-72
2023/01/31 08:22:59;;;;;;;12.10;6.10;;;4.10;99.90;;;;;;5030837;28;20195;-72
2023/01/31 08:25:27;;;;;;;15.50;6.70;;;4.20;99.90;;;;;;5031251;28;20176;-72
2023/01/31 08:27:55;;;;;;;13.63;7.83;;;4.30;99.90;;;;;;5032759;28;20796;-72
2023/01/31 08:30:20;;;;;;;10.33;5.77;;;4.30;99.90;;;;;;5031177;28;20429;-72
2023/01/31 08:32:46;;;;;;;11.57;6.57;;;4.50;99.90;;;;;;5031344;28;20421;-72
2023/01/31 08:35:12;;;;;;;12.80;7.00;;;4.40;99.90;;;;;;5032321;28;20174;-72
2023/01/31 08:37:37;;;;;;;8.90;5.37;;;4.40;99.90;;;;;;5032370;28;20270;-72
2023/01/31 08:40:03;;;;;;;8.90;5.30;;;4.50;99.90;;;;;;5032940;28;20217;-72
2023/01/31 08:42:29;;;;;;;7.80;4.80;;;4.70;99.90;;;;;;5036063;28;20712;-72
2023/01/31 08:44:54;;;;;;;12.50;5.83;;;4.90;99.90;;;;;;5036368;28;20402;-72
2023/01/31 08:47:20;;;;;;;6.93;4.70;;;4.80;99.90;;;;;;5035722;28;20203;-72
2023/01/31 08:49:45;;;;;;;7.10;4.63;;;4.80;99.90;;;;;;5035838;28;20190;-72
2023/01/31 08:52:11;;;;;;;12.30;5.70;;;4.90;99.90;;;;;;5036407;28;20229;-71
2023/01/31 08:54:36;;;;;;;7.00;5.80;;;4.90;99.90;;;;;;5034632;28;20180;-71
2023/01/31 08:57:02;;;;;;;12.63;4.97;;;5.10;99.90;;;;;;5035694;28;20206;-71
2023/01/31 08:59:28;;;;;;;28.70;18.77;;;5.40;99.90;;;;;;5036071;28;20186;-72
2023/01/31 09:01:54;;;;;;;18.47;8.90;;;5.20;99.90;;;;;;5034750;28;20551;-71
2023/01/31 09:04:19;;;;;;;15.90;8.23;;;5.20;99.90;;;;;;5035950;28;20398;-71
2023/01/31 09:06:45;;;;;;;15.43;6.00;;;5.40;99.90;;;;;;5034790;28;20173;-71
2023/01/31 09:09:10;;;;;;;11.07;6.80;;;5.40;99.90;;;;;;5035803;28;20170;-72
2023/01/31 09:11:36;;;;;;;10.33;5.67;;;5.70;99.90;;;;;;5034257;28;20171;-72
2023/01/31 09:14:02;;;;;;;15.30;9.40;;;5.90;99.90;;;;;;5035842;28;20254;-72
2023/01/31 09:16:27;;;;;;;13.40;8.10;;;6.10;99.90;;;;;;5033059;28;20553;-72
2023/01/31 09:18:53;;;;;;;9.57;5.97;;;6.20;99.90;;;;;;5017237;28;20200;-72
2023/01/31 09:21:20;;;;;;;13.23;8.57;;;6.30;99.90;;;;;;5016035;28;20259;-73
2023/01/31 09:23:46;;;;;;;64.60;30.80;;;6.40;99.90;;;;;;5015410;28;20188;-72
2023/01/31 09:26:13;;;;;;;13.43;7.87;;;6.20;99.90;;;;;;5015713;28;20751;-72
2023/01/31 09:28:42;;;;;;;9.23;6.60;;;6.30;99.90;;;;;;5015528;28;20463;-72
2023/01/31 09:31:11;;;;;;;8.00;5.80;;;6.30;99.90;;;;;;5014879;28;20422;-72
2023/01/31 09:33:37;;;;;;;10.33;5.67;;;6.00;99.90;;;;;;5015416;28;20433;-72
2023/01/31 09:36:08;;;;;;;28.97;15.93;;;6.20;99.90;;;;;;5022375;28;20834;-72
2023/01/31 09:38:35;;;;;;;12.03;6.97;;;6.30;99.90;;;;;;5035679;28;20528;-72
2023/01/31 09:41:04;;;;;;;10.77;6.03;;;6.30;99.90;;;;;;5035088;28;20402;-72
2023/01/31 09:43:36;;;;;;;9.93;6.00;;;6.50;99.90;;;;;;5035238;28;20443;-71
2023/01/31 09:46:09;;;;;;;9.93;5.30;;;6.80;99.90;;;;;;5034730;28;20470;-71
2023/01/31 09:48:40;;;;;;;10.43;4.87;;;6.60;99.90;;;;;;5034957;28;21023;-72
2023/01/31 09:51:09;;;;;;;9.87;5.67;;;6.70;99.90;;;;;;5034634;28;20755;-71
2023/01/31 09:53:40;;;;;;;9.80;4.87;;;6.80;99.90;;;;;;5035215;28;20923;-71
2023/01/31 09:56:08;;;;;;;10.23;5.40;;;6.60;99.90;;;;;;5033525;28;20448;-71
2023/01/31 09:58:55;;;;;;;10.20;4.93;;;6.40;99.90;;;;;;5034808;28;20529;-72
2023/01/31 10:01:30;;;;;;;8.60;4.13;;;6.50;99.90;;;;;;5035302;28;20924;-72
2023/01/31 10:04:04;;;;;;;8.33;4.77;;;6.20;99.90;;;;;;5034871;28;20429;-71
2023/01/31 10:06:45;;;;;;;8.83;5.40;;;6.30;99.90;;;;;;5035084;28;20390;-71
2023/01/31 10:09:24;;;;;;;14.50;5.43;;;6.40;99.90;;;;;;5034539;28;20387;-71
2023/01/31 10:12:19;;;;;;;7.63;4.90;;;6.50;99.90;;;;;;5034470;28;20485;-71
2023/01/31 10:14:51;;;;;;;8.37;4.80;;;6.50;99.90;;;;;;5035106;28;20390;-72
2023/01/31 10:17:35;;;;;;;6.67;4.40;;;6.80;99.90;;;;;;5034479;28;20905;-71
2023/01/31 10:20:10;;;;;;;9.57;5.07;;;6.70;99.90;;;;;;5034761;28;20399;-71
2023/01/31 10:22:42;;;;;;;10.33;5.47;;;6.50;99.90;;;;;;5034296;28;20449;-71
2023/01/31 10:25:33;;;;;;;7.83;4.60;;;6.70;99.90;;;;;;5033799;28;20438;-72
2023/01/31 10:28:15;;;;;;;7.97;4.70;;;7.00;99.90;;;;;;5034755;28;20429;-72
2023/01/31 10:31:02;;;;;;;8.57;4.43;;;7.20;99.90;;;;;;5034617;28;20431;-72
2023/01/31 10:33:54;;;;;;;8.80;5.23;;;7.30;99.90;;;;;;5034921;28;20396;-72
2023/01/31 10:36:41;;;;;;;12.83;4.00;;;7.00;99.90;;;;;;5023589;28;20430;-72
2023/01/31 10:39:25;;;;;;;10.33;5.10;;;6.70;99.90;;;;;;5034208;28;20392;-73
2023/01/31 10:42:12;;;;;;;9.40;4.00;;;7.10;99.90;;;;;;5033669;28;20793;-72
2023/01/31 10:44:48;;;;;;;7.43;4.27;;;7.10;99.90;;;;;;5034284;28;20751;-72
2023/01/31 10:47:16;;;;;;;7.17;3.87;;;6.90;99.90;;;;;;5033762;28;20451;-72
2023/01/31 10:49:47;;;;;;;8.07;4.57;;;7.00;99.90;;;;;;5038521;23;20492;-70
2023/01/31 10:52:27;;;;;;;7.03;4.13;;;7.00;99.90;;;;;;5011698;28;20944;-71
2023/01/31 10:55:10;;;;;;;6.50;5.20;;;6.90;99.90;;;;;;5012019;28;20478;-71
2023/01/31 10:57:36;;;;;;;8.17;4.20;;;6.90;99.90;;;;;;5013381;28;20391;-72
2023/01/31 11:00:02;;;;;;;8.47;4.30;;;6.90;99.90;;;;;;5016018;28;20440;-72
2023/01/31 11:02:29;;;;;;;10.93;4.60;;;6.90;99.90;;;;;;5012844;28;20197;-72
2023/01/31 11:04:57;;;;;;;8.60;5.77;;;7.10;99.90;;;;;;5012327;28;20458;-72
2023/01/31 11:07:23;;;;;;;7.30;4.27;;;7.30;99.90;;;;;;5011701;28;20429;-71
2023/01/31 11:09:54;;;;;;;6.20;4.10;;;7.40;99.90;;;;;;5012170;28;20436;-71
2023/01/31 11:12:37;;;;;;;6.60;4.50;;;7.50;99.90;;;;;;5012655;28;20404;-72
2023/01/31 11:15:05;;;;;;;8.40;3.87;;;7.40;99.90;;;;;;5010706;28;20429;-71
2023/01/31 11:17:34;;;;;;;6.27;3.77;;;7.60;99.90;;;;;;5012901;28;20418;-72
2023/01/31 11:20:00;;;;;;;9.70;3.90;;;7.80;99.90;;;;;;5011486;28;20504;-70
2023/01/31 11:22:31;;;;;;;11.83;4.27;;;7.90;99.90;;;;;;5013717;28;20444;-71
2023/01/31 11:25:00;;;;;;;13.60;6.47;;;7.60;99.90;;;;;;5013199;28;20203;-71
2023/01/31 11:27:31;;;;;;;6.47;3.43;;;7.50;99.90;;;;;;5012556;28;20406;-71
2023/01/31 11:29:59;;;;;;;7.67;4.10;;;7.40;99.90;;;;;;5012509;28;20490;-72
2023/01/31 11:32:31;;;;;;;8.80;4.07;;;7.20;99.90;;;;;;5011416;28;20424;-72
2023/01/31 11:34:58;;;;;;;5.23;3.83;;;7.10;99.90;;;;;;5013098;28;20399;-72
2023/01/31 11:37:23;;;;;;;14.60;4.07;;;7.20;99.90;;;;;;5012714;28;20917;-71
2023/01/31 11:40:02;;;;;;;9.53;4.80;;;7.20;99.90;;;;;;5012722;28;20433;-71
2023/01/31 11:42:27;;;;;;;9.03;3.90;;;7.30;99.90;;;;;;5012943;28;20206;-71
2023/01/31 11:45:00;;;;;;;7.50;4.27;;;7.20;99.90;;;;;;5012504;28;20416;-71
2023/01/31 11:47:44;;;;;;;6.40;4.40;;;7.30;99.90;;;;;;5012390;28;20167;-71
2023/01/31 11:50:32;;;;;;;30.23;17.70;;;7.50;99.90;;;;;;5012229;28;20397;-70
2023/01/31 11:53:00;;;;;;;14.47;6.90;;;7.30;99.90;;;;;;5011842;28;20790;-71
2023/01/31 11:55:33;;;;;;;6.40;4.57;;;7.40;99.90;;;;;;5011838;28;20402;-71
2023/01/31 11:58:01;;;;;;;7.00;4.00;;;7.40;99.90;;;;;;5012072;28;20429;-70
2023/01/31 12:00:31;;;;;;;8.57;3.87;;;7.60;99.90;;;;;;5012258;28;20806;-70
2023/01/31 12:03:12;;;;;;;7.90;3.30;;;7.70;99.90;;;;;;5012551;28;20469;-71
2023/01/31 12:05:49;;;;;;;6.83;3.63;;;8.00;99.90;;;;;;5011317;28;20487;-71
2023/01/31 12:08:35;;;;;;;8.37;3.30;;;8.00;99.90;;;;;;5012347;28;20458;-71
2023/01/31 12:11:18;;;;;;;10.60;3.53;;;7.80;99.90;;;;;;5012409;28;20390;-71
2023/01/31 12:14:00;;;;;;;7.83;3.50;;;7.90;99.90;;;;;;5010994;28;20417;-71
2023/01/31 12:16:28;;;;;;;11.10;3.63;;;7.90;99.90;;;;;;5016137;28;20410;-71
2023/01/31 12:19:12;;;;;;;11.23;3.43;;;8.00;99.90;;;;;;4998799;28;20434;-72
2023/01/31 12:22:09;;;;;;;5.70;3.30;;;8.10;99.90;;;;;;5016070;28;20495;-71
2023/01/31 12:24:49;;;;;;;11.80;3.43;;;8.20;99.90;;;;;;5016425;28;20761;-71
2023/01/31 12:27:45;;;;;;;7.53;3.50;;;8.00;99.90;;;;;;5015936;28;20405;-72
2023/01/31 12:30:49;;;;;;;7.63;2.67;;;8.10;99.90;;;;;;5016444;28;20379;-72
2023/01/31 12:33:26;;;;;;;8.10;3.50;;;8.00;99.90;;;;;;4986077;28;20891;-71
2023/01/31 12:36:00;;;;;;;8.27;3.10;;;7.70;99.90;;;;;;5016036;28;20557;-71
2023/01/31 12:39:11;;;;;;;10.60;3.73;;;7.80;99.90;;;;;;5014396;28;20446;-71
2023/01/31 12:41:45;;;;;;;8.13;3.80;;;8.30;99.90;;;;;;5015687;28;20402;-71
2023/01/31 12:44:34;;;;;;;7.70;2.70;;;9.70;99.90;;;;;;5016099;28;20409;-71
2023/01/31 12:47:25;;;;;;;6.43;2.50;;;9.90;99.90;;;;;;5016010;28;20384;-72
2023/01/31 12:50:16;;;;;;;4.63;3.33;;;9.20;99.90;;;;;;5015864;28;20451;-72
2023/01/31 12:52:57;;;;;;;10.00;3.70;;;8.60;99.90;;;;;;5016091;28;20449;-72
2023/01/31 12:55:49;;;;;;;12.97;4.33;;;8.20;99.90;;;;;;5014811;28;20531;-71
2023/01/31 12:58:41;;;;;;;6.37;3.10;;;7.90;99.90;;;;;;5016038;28;20847;-71
2023/01/31 13:01:10;;;;;;;10.97;3.70;;;7.90;99.90;;;;;;5014693;28;20448;-71
2023/01/31 13:03:54;;;;;;;8.90;3.10;;;7.70;99.90;;;;;;5016065;28;20452;-72
2023/01/31 13:06:46;;;;;;;4.33;2.83;;;7.60;99.90;;;;;;5015786;28;20948;-72
2023/01/31 13:09:42;;;;;;;6.03;3.30;;;7.50;99.90;;;;;;5015536;28;20422;-71
2023/01/31 13:12:14;;;;;;;5.17;2.70;;;7.30;99.90;;;;;;5006255;28;20412;-71
2023/01/31 13:14:43;;;;;;;9.33;3.30;;;7.20;99.90;;;;;;5030980;28;20428;-71
2023/01/31 13:17:16;;;;;;;9.83;4.20;;;7.40;99.90;;;;;;5029212;28;20524;-71
2023/01/31 13:19:54;;;;;;;5.27;3.17;;;7.30;99.90;;;;;;5015604;28;20506;-72